createdAt,value
2023-12-16T00:02:07.903Z,6.5
2023-12-16T00:05:04.321Z,6.5
2023-12-16T00:08:04.327Z,6.5
2023-12-16T00:11:04.334Z,6.5
2023-12-16T00:14:04.345Z,6.5
2023-12-16T00:17:04.335Z,6.4
2023-12-16T00:20:04.353Z,6.4
2023-12-16T00:23:04.346Z,6.4
2023-12-16T00:26:04.345Z,6.4
2023-12-16T00:29:04.347Z,6.4
2023-12-16T00:32:04.376Z,6.3
2023-12-16T00:35:04.364Z,6.3
2023-12-16T00:38:04.343Z,6.3
2023-12-16T00:41:04.360Z,6.3
2023-12-16T00:44:04.369Z,6.3
2023-12-16T00:47:04.363Z,6.3
2023-12-16T00:50:04.355Z,6.2
2023-12-16T00:53:04.370Z,6.2
2023-12-16T00:56:04.369Z,6.2
2023-12-16T00:59:04.406Z,6.2
2023-12-16T01:02:04.384Z,6.1
2023-12-16T01:05:04.408Z,6.2
2023-12-16T01:08:04.382Z,6.1
2023-12-16T01:11:04.382Z,6.2
2023-12-16T01:14:04.402Z,6.1
2023-12-16T01:17:04.446Z,6.1
2023-12-16T01:20:04.386Z,6.1
2023-12-16T01:23:04.382Z,6.1
2023-12-16T01:26:04.401Z,6.1
2023-12-16T01:29:04.412Z,6.1
2023-12-16T01:32:04.392Z,6.1
2023-12-16T01:35:04.399Z,6.1
2023-12-16T01:38:04.410Z,6
2023-12-16T01:41:04.466Z,6
2023-12-16T01:44:04.414Z,6
2023-12-16T01:47:04.496Z,6
2023-12-16T01:50:04.460Z,6
2023-12-16T01:53:04.417Z,6
2023-12-16T01:56:04.422Z,6
2023-12-16T01:59:04.446Z,6
2023-12-16T02:02:04.436Z,6
2023-12-16T02:05:04.439Z,6
2023-12-16T02:08:04.425Z,6
2023-12-16T02:11:04.432Z,5.9
2023-12-16T02:14:04.434Z,5.9
2023-12-16T02:17:04.432Z,5.9
2023-12-16T02:20:04.536Z,5.8
2023-12-16T02:23:04.438Z,5.8
2023-12-16T02:26:04.438Z,5.8
2023-12-16T02:29:04.448Z,5.8
2023-12-16T02:32:04.451Z,5.8
2023-12-16T02:35:04.450Z,5.8
2023-12-16T02:38:04.444Z,5.8
2023-12-16T02:41:04.462Z,5.8
2023-12-16T02:44:04.466Z,5.8
2023-12-16T02:47:04.508Z,5.7
2023-12-16T02:50:04.705Z,5.7
2023-12-16T02:53:04.455Z,5.7
2023-12-16T02:56:04.468Z,5.7
2023-12-16T02:59:04.467Z,5.7
2023-12-16T03:02:04.473Z,5.7
2023-12-16T03:05:04.510Z,5.7
2023-12-16T03:08:04.477Z,5.8
2023-12-16T03:11:04.483Z,5.7
2023-12-16T03:14:04.491Z,5.7
2023-12-16T03:17:04.491Z,5.7
2023-12-16T03:20:04.526Z,5.7
2023-12-16T03:23:04.488Z,5.7
2023-12-16T03:26:04.497Z,5.6
2023-12-16T03:29:04.511Z,5.6
2023-12-16T03:32:04.504Z,5.6
2023-12-16T03:35:04.504Z,5.6
2023-12-16T03:38:04.568Z,5.6
2023-12-16T03:41:04.584Z,5.5
2023-12-16T03:44:04.532Z,5.5
2023-12-16T03:47:04.515Z,5.6
2023-12-16T03:50:04.541Z,5.5
2023-12-16T03:53:04.525Z,5.5
2023-12-16T03:56:04.529Z,5.5
2023-12-16T03:59:04.537Z,5.5
2023-12-16T04:02:04.555Z,5.4
2023-12-16T04:05:04.545Z,5.4
2023-12-16T04:08:04.550Z,5.4
2023-12-16T04:11:04.551Z,5.4
2023-12-16T04:14:04.555Z,5.4
2023-12-16T04:17:04.554Z,5.4
2023-12-16T04:20:04.678Z,5.3
2023-12-16T04:23:04.578Z,5.3
2023-12-16T04:26:06.990Z,5.3
2023-12-16T04:29:04.582Z,5.2
2023-12-16T04:32:04.600Z,5.3
2023-12-16T04:35:04.589Z,5.2
2023-12-16T04:38:04.594Z,5.2
2023-12-16T04:41:04.593Z,5.1
2023-12-16T04:44:04.612Z,5.2
2023-12-16T04:47:04.598Z,5.1
2023-12-16T04:50:04.589Z,5.1
2023-12-16T04:53:04.612Z,5.1
2023-12-16T04:56:04.614Z,5.1
2023-12-16T04:59:04.622Z,5.1
2023-12-16T05:02:04.697Z,5.1
2023-12-16T05:05:04.619Z,5.1
2023-12-16T05:08:04.624Z,5
2023-12-16T05:11:04.790Z,5
2023-12-16T05:14:04.645Z,5
2023-12-16T05:17:04.629Z,5
2023-12-16T05:20:04.716Z,5
2023-12-16T05:23:04.636Z,4.9
2023-12-16T05:26:04.649Z,4.9
2023-12-16T05:29:04.654Z,4.9
2023-12-16T05:32:04.650Z,4.9
2023-12-16T05:35:04.662Z,4.9
2023-12-16T05:38:04.666Z,4.9
2023-12-16T05:41:04.668Z,4.8
2023-12-16T05:44:04.685Z,4.8
2023-12-16T05:47:04.685Z,4.8
2023-12-16T05:50:04.717Z,4.8
2023-12-16T05:53:04.665Z,4.7
2023-12-16T05:56:04.668Z,4.8
2023-12-16T05:59:04.695Z,4.7
2023-12-16T06:02:04.673Z,4.7
2023-12-16T06:05:04.730Z,4.7
2023-12-16T06:08:04.691Z,4.7
2023-12-16T06:11:04.680Z,4.6
2023-12-16T06:14:04.700Z,4.7
2023-12-16T06:17:04.782Z,4.6
2023-12-16T06:20:04.713Z,4.6
2023-12-16T06:23:04.709Z,4.6
2023-12-16T06:26:04.700Z,4.6
2023-12-16T06:29:04.712Z,4.5
2023-12-16T06:32:04.716Z,4.5
2023-12-16T06:35:04.718Z,4.5
2023-12-16T06:38:04.723Z,4.5
2023-12-16T06:41:04.760Z,4.5
2023-12-16T06:44:04.785Z,4.5
2023-12-16T06:47:04.829Z,4.5
2023-12-16T06:50:04.825Z,4.5
2023-12-16T06:53:04.856Z,4.5
2023-12-16T06:56:04.841Z,4.5
2023-12-16T06:59:04.828Z,4.5
2023-12-16T07:02:04.802Z,4.5
2023-12-16T07:05:04.858Z,4.5
2023-12-16T07:08:04.749Z,4.5
2023-12-16T07:11:04.765Z,4.4
2023-12-16T07:14:04.801Z,4.4
2023-12-16T07:17:04.773Z,4.4
2023-12-16T07:20:04.821Z,4.4
2023-12-16T07:23:04.778Z,4.4
2023-12-16T07:26:04.815Z,4.5
2023-12-16T07:29:04.794Z,4.5
2023-12-16T07:32:04.862Z,4.4
2023-12-16T07:35:04.834Z,4.5
2023-12-16T07:38:04.792Z,4.5
2023-12-16T07:41:04.795Z,4.5
2023-12-16T07:44:04.833Z,4.5
2023-12-16T07:47:04.810Z,4.5
2023-12-16T07:50:04.852Z,4.5
2023-12-16T07:53:04.810Z,4.5
2023-12-16T07:56:04.808Z,4.4
2023-12-16T07:59:04.823Z,4.5
2023-12-16T08:02:04.864Z,4.5
2023-12-16T08:05:04.821Z,4.5
2023-12-16T08:08:04.833Z,4.5
2023-12-16T08:11:04.831Z,4.5
2023-12-16T08:14:04.855Z,4.4
2023-12-16T08:17:04.848Z,4.4
2023-12-16T08:20:04.887Z,4.4
2023-12-16T08:23:04.853Z,4.3
2023-12-16T08:26:04.853Z,4.3
2023-12-16T08:29:04.873Z,4.3
2023-12-16T08:32:05.260Z,4.3
2023-12-16T08:35:05.073Z,4.4
2023-12-16T08:38:04.868Z,4.4
2023-12-16T08:41:04.890Z,4.6
2023-12-16T08:44:04.899Z,4.6
2023-12-16T08:47:04.931Z,4.7
2023-12-16T08:50:04.964Z,4.8
2023-12-16T08:53:04.899Z,4.8
2023-12-16T08:56:04.911Z,4.9
2023-12-16T08:59:04.920Z,4.8
2023-12-16T09:02:04.949Z,4.9
2023-12-16T09:05:04.921Z,5
2023-12-16T09:08:04.917Z,5.1
2023-12-16T09:11:04.928Z,5
2023-12-16T09:14:04.941Z,5
2023-12-16T09:17:04.936Z,5.1
2023-12-16T09:20:05.014Z,5.2
2023-12-16T09:23:04.947Z,5.2
2023-12-16T09:26:04.958Z,5.4
2023-12-16T09:29:05.149Z,5.5
2023-12-16T09:32:04.959Z,5.2
2023-12-16T09:35:04.973Z,5.3
2023-12-16T09:38:04.987Z,5.1
2023-12-16T09:41:04.976Z,4.9
2023-12-16T09:44:04.999Z,4.9
2023-12-16T09:47:05.004Z,5
2023-12-16T09:50:05.062Z,4.9
2023-12-16T09:53:05.003Z,4.9
2023-12-16T09:56:05.015Z,5.1
2023-12-16T09:59:05.044Z,5.1
2023-12-16T10:02:05.069Z,5
2023-12-16T10:05:05.042Z,4.9
2023-12-16T10:08:05.032Z,5
2023-12-16T10:11:09.197Z,4.9
2023-12-16T10:14:05.262Z,4.8
2023-12-16T10:17:05.047Z,4.9
2023-12-16T10:20:05.100Z,5.1
2023-12-16T10:23:05.058Z,4.9
2023-12-16T10:26:05.084Z,4.9
2023-12-16T10:29:05.080Z,5.1
2023-12-16T10:32:05.078Z,5.1
2023-12-16T10:35:05.081Z,5.3
2023-12-16T10:38:05.100Z,5.4
2023-12-16T10:41:05.100Z,5.3
2023-12-16T10:44:05.112Z,5.3
2023-12-16T10:47:05.113Z,5.3
2023-12-16T10:50:05.194Z,5.2
2023-12-16T10:53:05.128Z,5.2
2023-12-16T10:56:05.216Z,5.2
2023-12-16T10:59:05.153Z,5.1
2023-12-16T11:02:05.221Z,5.2
2023-12-16T11:05:05.161Z,5.3
2023-12-16T11:08:05.150Z,5.3
2023-12-16T11:11:05.161Z,5.3
2023-12-16T11:14:05.187Z,5.3
2023-12-16T11:17:05.179Z,5.3
2023-12-16T11:20:05.226Z,5.4
2023-12-16T11:23:05.195Z,5.4
2023-12-16T11:26:05.363Z,5.5
2023-12-16T11:29:05.229Z,5.4
2023-12-16T11:32:05.212Z,5.4
2023-12-16T11:35:05.301Z,5.5
2023-12-16T11:38:05.231Z,5.5
2023-12-16T11:41:05.239Z,5.5
2023-12-16T11:44:05.288Z,5.5
2023-12-16T11:47:05.251Z,5.6
2023-12-16T11:50:05.300Z,5.6
2023-12-16T11:53:05.264Z,5.7
2023-12-16T11:56:05.293Z,5.7
2023-12-16T11:59:05.524Z,5.7
2023-12-16T12:02:05.307Z,5.8
2023-12-16T12:05:05.391Z,5.8
2023-12-16T12:08:05.311Z,5.8
2023-12-16T12:11:05.324Z,5.8
2023-12-16T12:14:05.344Z,5.9
2023-12-16T12:17:05.359Z,5.9
2023-12-16T12:20:05.336Z,5.9
2023-12-16T12:23:06.499Z,5.9
2023-12-16T12:26:05.371Z,6
2023-12-16T12:29:05.923Z,5.9
2023-12-16T12:32:05.382Z,5.9
2023-12-16T12:35:06.723Z,5.8
2023-12-16T12:38:05.387Z,5.8
2023-12-16T12:41:05.632Z,5.9
2023-12-16T12:44:05.440Z,5.9
2023-12-16T12:47:05.565Z,5.9
2023-12-16T12:50:05.422Z,5.9
2023-12-16T12:53:16.563Z,5.9
2023-12-16T12:56:05.454Z,5.8
2023-12-16T12:59:55.870Z,5.8
2023-12-16T13:02:05.483Z,5.9
2023-12-16T13:05:05.483Z,5.9
2023-12-16T13:08:05.481Z,5.9
2023-12-16T13:11:05.512Z,5.8
2023-12-16T13:14:05.843Z,5.9
2023-12-16T13:17:05.520Z,5.9
2023-12-16T13:20:05.533Z,5.9
2023-12-16T13:23:05.538Z,5.9
2023-12-16T13:26:05.562Z,5.9
2023-12-16T13:29:05.565Z,6
2023-12-16T13:32:05.555Z,6
2023-12-16T13:35:05.581Z,6
2023-12-16T13:38:05.587Z,6
2023-12-16T13:41:05.611Z,6.1
2023-12-16T13:44:05.625Z,6.1
2023-12-16T13:47:05.651Z,6.2
2023-12-16T13:50:05.626Z,6.2
2023-12-16T13:53:05.629Z,6.2
2023-12-16T13:56:05.656Z,6.3
2023-12-16T13:59:05.660Z,6.3
2023-12-16T14:02:05.659Z,6.3
2023-12-16T14:05:05.723Z,6.4
2023-12-16T14:08:05.707Z,6.4
2023-12-16T14:11:05.708Z,6.4
2023-12-16T14:14:05.708Z,6.4
2023-12-16T14:17:05.705Z,6.4
2023-12-16T14:20:05.711Z,6.4
2023-12-16T14:23:05.723Z,6.4
2023-12-16T14:26:05.740Z,6.4
2023-12-16T14:29:05.718Z,6.4
2023-12-16T14:32:05.714Z,6.5
2023-12-16T14:35:05.891Z,6.4
2023-12-16T14:38:05.719Z,6.4
2023-12-16T14:41:05.744Z,6.5
2023-12-16T14:44:05.723Z,6.4
2023-12-16T14:47:05.724Z,6.4
2023-12-16T14:50:05.726Z,6.5
2023-12-16T14:53:05.722Z,6.5
2023-12-16T14:56:05.722Z,6.5
2023-12-16T14:59:05.723Z,6.5
2023-12-16T15:02:05.737Z,6.5
2023-12-16T15:05:05.730Z,6.5
2023-12-16T15:08:05.778Z,6.5
2023-12-16T15:11:05.825Z,6.6
2023-12-16T15:14:05.728Z,6.5
2023-12-16T15:17:05.903Z,6.6
2023-12-16T15:20:05.733Z,6.6
2023-12-16T15:23:06.883Z,6.6
2023-12-16T15:26:05.737Z,6.6
2023-12-16T15:29:05.847Z,6.7
2023-12-16T15:32:05.881Z,6.7
2023-12-16T15:35:05.799Z,6.7
2023-12-16T15:38:05.760Z,6.7
2023-12-16T15:41:05.742Z,6.7
2023-12-16T15:44:05.739Z,6.7
2023-12-16T15:47:05.861Z,6.7
2023-12-16T15:50:05.852Z,6.7
2023-12-16T15:53:05.736Z,6.7
2023-12-16T15:56:05.959Z,6.7
2023-12-16T15:59:05.745Z,6.7
2023-12-16T16:02:05.748Z,6.7
2023-12-16T16:05:05.763Z,6.8
2023-12-16T16:08:05.775Z,6.8
2023-12-16T16:11:07.336Z,6.9
2023-12-16T16:14:05.754Z,7
2023-12-16T16:17:05.750Z,7
2023-12-16T16:20:05.798Z,7.1
2023-12-16T16:23:05.755Z,7.1
2023-12-16T16:26:05.764Z,7.1
2023-12-16T16:29:05.767Z,7.1
2023-12-16T16:32:05.794Z,7.1
2023-12-16T16:35:05.769Z,7.1
2023-12-16T16:38:05.771Z,7.2
2023-12-16T16:41:05.775Z,7.2
2023-12-16T16:44:05.779Z,7.2
2023-12-16T16:47:05.786Z,7.2
2023-12-16T16:50:05.791Z,7.2
2023-12-16T16:53:05.796Z,7.2
2023-12-16T16:56:05.791Z,7.2
2023-12-16T16:59:05.810Z,7.2
2023-12-16T17:02:05.813Z,7.2
2023-12-16T17:05:05.849Z,7.2
2023-12-16T17:08:05.811Z,7.2
2023-12-16T17:11:05.838Z,7.2
2023-12-16T17:14:05.818Z,7.2
2023-12-16T17:17:05.837Z,7.2
2023-12-16T17:20:05.825Z,7.2
2023-12-16T17:23:05.839Z,7.2
2023-12-16T17:26:05.854Z,7.2
2023-12-16T17:29:05.836Z,7.2
2023-12-16T17:32:05.834Z,7.2
2023-12-16T17:35:05.848Z,7.2
2023-12-16T17:38:05.855Z,7.2
2023-12-16T17:41:05.863Z,7.2
2023-12-16T17:44:05.863Z,7.2
2023-12-16T17:47:05.870Z,7.1
2023-12-16T17:50:05.887Z,7.1
2023-12-16T17:53:07.047Z,7.1
2023-12-16T17:56:05.956Z,7.1
2023-12-16T17:59:05.896Z,7.1
2023-12-16T18:02:05.964Z,7.1
2023-12-16T18:05:05.981Z,7.1
2023-12-16T18:08:05.926Z,7.2
2023-12-16T18:11:05.939Z,7.1
2023-12-16T18:14:05.990Z,7.1
2023-12-16T18:17:05.949Z,7.1
2023-12-16T18:20:05.962Z,7.1
2023-12-16T18:23:05.980Z,7.1
2023-12-16T18:26:05.967Z,7.1
2023-12-16T18:29:05.985Z,7
2023-12-16T18:32:05.991Z,7
2023-12-16T18:35:06.000Z,7
2023-12-16T18:38:06.023Z,7
2023-12-16T18:41:06.008Z,7
2023-12-16T18:44:06.032Z,7
2023-12-16T18:47:06.015Z,7
2023-12-16T18:50:06.025Z,7
2023-12-16T18:53:06.070Z,7
2023-12-16T18:56:06.036Z,7
2023-12-16T18:59:06.036Z,7
2023-12-16T19:02:06.041Z,7
2023-12-16T19:05:06.052Z,7
2023-12-16T19:08:06.048Z,7
2023-12-16T19:11:06.040Z,7
2023-12-16T19:14:06.053Z,7
2023-12-16T19:17:06.050Z,7
2023-12-16T19:20:06.061Z,7
2023-12-16T19:23:06.046Z,7
2023-12-16T19:26:06.050Z,7
2023-12-16T19:29:06.057Z,7
2023-12-16T19:32:06.061Z,7
2023-12-16T19:35:06.063Z,7
2023-12-16T19:38:06.060Z,7
2023-12-16T19:41:06.068Z,7
2023-12-16T19:44:06.060Z,7
2023-12-16T19:47:06.060Z,7
2023-12-16T19:50:06.070Z,7
2023-12-16T19:53:06.062Z,7
2023-12-16T19:56:06.063Z,7
2023-12-16T19:59:06.173Z,7
2023-12-16T20:02:06.062Z,7
2023-12-16T20:05:06.081Z,7
2023-12-16T20:08:06.068Z,7
2023-12-16T20:11:07.149Z,7
2023-12-16T20:14:06.124Z,7
2023-12-16T20:17:06.078Z,7
2023-12-16T20:20:06.089Z,7
2023-12-16T20:23:06.078Z,7.1
2023-12-16T20:26:06.102Z,7
2023-12-16T20:29:06.076Z,7
2023-12-16T20:32:06.081Z,7
2023-12-16T20:35:06.093Z,7.1
2023-12-16T20:38:06.081Z,7.1
2023-12-16T20:41:06.084Z,7.1
2023-12-16T20:44:06.083Z,7.1
2023-12-16T20:47:06.101Z,7.1
2023-12-16T20:50:06.179Z,7.1
2023-12-16T20:53:06.093Z,7.1
2023-12-16T20:56:06.105Z,7.1
2023-12-16T20:59:06.094Z,7.2
2023-12-16T21:02:06.151Z,7.2
2023-12-16T21:05:06.108Z,7.2
2023-12-16T21:08:06.100Z,7.2
2023-12-16T21:11:06.104Z,7.2
2023-12-16T21:14:06.102Z,7.2
2023-12-16T21:17:06.102Z,7.2
2023-12-16T21:20:06.107Z,7.2
2023-12-16T21:23:06.108Z,7.2
2023-12-16T21:26:06.105Z,7.2
2023-12-16T21:29:06.114Z,7.2
2023-12-16T21:32:06.150Z,7.2
2023-12-16T21:35:06.211Z,7.2
2023-12-16T21:38:06.117Z,7.3
2023-12-16T21:41:06.113Z,7.3
2023-12-16T21:44:06.116Z,7.3
2023-12-16T21:47:06.121Z,7.3
2023-12-16T21:50:06.130Z,7.3
2023-12-16T21:53:06.119Z,7.3
2023-12-16T21:56:06.134Z,7.3
2023-12-16T21:59:06.126Z,7.3
2023-12-16T22:02:06.127Z,7.3
2023-12-16T22:05:06.168Z,7.4
2023-12-16T22:08:07.351Z,7.3
2023-12-16T22:11:06.150Z,7.3
2023-12-16T22:14:06.144Z,7.4
2023-12-16T22:17:06.135Z,7.3
2023-12-16T22:20:06.168Z,7.3
2023-12-16T22:23:06.145Z,7.4
2023-12-16T22:26:06.150Z,7.4
2023-12-16T22:29:06.149Z,7.4
2023-12-16T22:32:06.147Z,7.4
2023-12-16T22:35:06.162Z,7.4
2023-12-16T22:38:06.156Z,7.4
2023-12-16T22:41:06.162Z,7.4
2023-12-16T22:44:06.163Z,7.4
2023-12-16T22:47:06.160Z,7.4
2023-12-16T22:50:06.323Z,7.4
2023-12-16T22:53:06.167Z,7.5
2023-12-16T22:56:06.186Z,7.5
2023-12-16T22:59:06.168Z,7.5
2023-12-16T23:02:06.170Z,7.5
2023-12-16T23:05:06.206Z,7.5
2023-12-16T23:08:06.178Z,7.5
2023-12-16T23:11:06.189Z,7.5
2023-12-16T23:14:06.184Z,7.5
2023-12-16T23:17:06.186Z,7.5
2023-12-16T23:20:06.195Z,7.5
2023-12-16T23:23:06.194Z,7.5
2023-12-16T23:26:06.201Z,7.5
2023-12-16T23:29:06.213Z,7.6
2023-12-16T23:32:06.207Z,7.6
2023-12-16T23:35:06.223Z,7.6
2023-12-16T23:38:06.218Z,7.6
2023-12-16T23:41:06.219Z,7.6
2023-12-16T23:44:06.240Z,7.6
2023-12-16T23:47:06.228Z,7.6
2023-12-16T23:50:06.238Z,7.6
2023-12-16T23:53:06.237Z,7.6
2023-12-16T23:56:06.251Z,7.6
2023-12-16T23:59:06.259Z,7.6
